Monterey, CA

1:31 AM PDT on September 18, 2014 (GMT -0700)
San Martin | Change Station
CLOSE
Current Station
Airport
Location: San Martin,
Elevation: 279 ft
Nearby Weather Stations

Elev 279 ft 37.08 °N, 121.60 °W | Updated 16 minutes ago

Overcast
Overcast
66 °F
Feels Like 66 °F
N
4
Wind Variable Wind from SW

Today
High -- | Low -- °F
--% Chance of Precip.
Yesterday
High -- | Low -- °F
Precip. -- in
6:52 AM 7:10 PM
Waning Crescent, 29% visible
Pressure 29.83 in
Visibility 10.0 miles
Clouds Overcast 1400 ft
Dew Point 63 °F
Humidity 88%
Rainfall 0.00 in
Snow Depth Not available.
UV 0 out of 12
Pollen 5.10 out of 12
Air Quality Not available.
Flu Activity Not available.
METAR KE16 180815Z AUTO 22003KT 10SM OVC014 19/17 A2983 RMK AO2

More Conditions Fewer Conditions

Pressure 29.83 in
Visibility 10.0 miles
Clouds Overcast 1400 ft
Dew Point 63 °F
Humidity 88%
Rainfall 0.00 in
Snow Depth Not available.
UV 0 out of 12
Pollen 5.10 out of 12
Air Quality Not available.
Flu Activity Not available.
METAR KE16 180815Z AUTO 22003KT 10SM OVC014 19/17 A2983 RMK AO2

More Conditions Fewer Conditions

10-Day Weather Forecast

Almanac

Astronomy

Sep. 18, 2014 Rise Set
Actual Time 6:52 AM PDT 7:10 PM PDT
Civil Twilight 6:26 AM PDT 7:35 PM PDT
Nautical Twilight 5:56 AM PDT 8:06 PM PDT
Astronomical Twilight 5:25 AM PDT 8:36 PM PDT
Moon 1:55 AM PDT 3:59 PM PDT
Length of Visible Light 13h 09m
Length of Day
12h 17m
Tomorrow will be 2m 19s shorter.
Waning Crescent, 29% of the Moon is Illuminated
Today
Waning Crescent
Sep 24
New
Oct 1
First Quarter
Oct 8
Full
Oct 15
Last Quarter

Today's Extremes

State Highs State Lows

Community

WunderPhotos

Upload Photos

1,754,310 photos uploaded!

Nearby

Snow Depth

Station Depth Elevation
Burnside Lake 1 in 8139 ft
CSS Lab 2 in 6900 ft
Sonora Pass 0 in 8800 ft
Monitor Pass 0 in 8350 ft
Leavitt Meadows 1 in 7200 ft

Earthquake Activity

City Distance Mag. Time & Date
No recent earthquake activity has been reported nearby.
Minimum magnitude displayed is 2.5.

Coastal Water Temperatures

Place Temperature
Monterey, CA 62.1 °F
Redwood City, CA 72.0 °F

Nearby Weather Stations